sensor_id;sensor_type;location;lat;lon;timestamp;pressure;altitude;pressure_sealevel;temperature;humidity
10392;BME280;5242;49.244;6.774;2022-07-29T00:03:26;99288.13;;;17.02;58.56
10392;BME280;5242;49.244;6.774;2022-07-29T00:11:18;99294.84;;;16.97;58.60
10392;BME280;5242;49.244;6.774;2022-07-29T00:19:10;99288.59;;;16.93;59.58
10392;BME280;5242;49.244;6.774;2022-07-29T00:27:03;99283.94;;;16.83;57.89
10392;BME280;5242;49.244;6.774;2022-07-29T00:34:54;99294.56;;;16.73;58.15
10392;BME280;5242;49.244;6.774;2022-07-29T00:43:05;99281.31;;;16.54;58.20
10392;BME280;5242;49.244;6.774;2022-07-29T00:50:58;99283.34;;;16.39;60.28
10392;BME280;5242;49.244;6.774;2022-07-29T00:58:51;99278.63;;;16.33;62.17
10392;BME280;5242;49.244;6.774;2022-07-29T01:06:43;99288.09;;;16.21;61.24
10392;BME280;5242;49.244;6.774;2022-07-29T01:14:36;99276.38;;;16.13;61.27
10392;BME280;5242;49.244;6.774;2022-07-29T01:30:27;99261.47;;;16.00;62.21
10392;BME280;5242;49.244;6.774;2022-07-29T01:38:23;99260.72;;;15.96;63.51
10392;BME280;5242;49.244;6.774;2022-07-29T01:46:25;99257.97;;;15.96;63.23
10392;BME280;5242;49.244;6.774;2022-07-29T01:54:26;99267.78;;;15.93;63.25
10392;BME280;5242;49.244;6.774;2022-07-29T02:02:20;99259.16;;;15.84;62.78
10392;BME280;5242;49.244;6.774;2022-07-29T02:10:14;99259.53;;;15.64;62.70
10392;BME280;5242;49.244;6.774;2022-07-29T02:18:16;99268.56;;;15.43;63.05
10392;BME280;5242;49.244;6.774;2022-07-29T02:26:09;99268.56;;;15.36;64.33
10392;BME280;5242;49.244;6.774;2022-07-29T02:34:06;99280.34;;;15.30;64.79
10392;BME280;5242;49.244;6.774;2022-07-29T02:42:08;99272.50;;;15.28;64.53
10392;BME280;5242;49.244;6.774;2022-07-29T02:50:09;99275.22;;;15.10;67.87
10392;BME280;5242;49.244;6.774;2022-07-29T02:58:24;99285.81;;;15.01;66.82
10392;BME280;5242;49.244;6.774;2022-07-29T03:06:21;99291.28;;;15.01;65.42
10392;BME280;5242;49.244;6.774;2022-07-29T03:14:30;99291.25;;;14.87;65.09
10392;BME280;5242;49.244;6.774;2022-07-29T03:22:23;99294.31;;;14.67;66.60
10392;BME280;5242;49.244;6.774;2022-07-29T03:30:16;99295.88;;;14.57;68.44
10392;BME280;5242;49.244;6.774;2022-07-29T03:38:12;99297.31;;;14.44;70.48
10392;BME280;5242;49.244;6.774;2022-07-29T03:46:06;99297.72;;;14.43;68.79
10392;BME280;5242;49.244;6.774;2022-07-29T03:54:00;99302.78;;;14.37;68.52
10392;BME280;5242;49.244;6.774;2022-07-29T04:02:02;99305.53;;;14.37;67.98
10392;BME280;5242;49.244;6.774;2022-07-29T04:09:55;99303.56;;;14.38;68.16
10392;BME280;5242;49.244;6.774;2022-07-29T04:17:46;99308.63;;;14.32;70.99
10392;BME280;5242;49.244;6.774;2022-07-29T04:25:40;99325.88;;;14.36;68.92
10392;BME280;5242;49.244;6.774;2022-07-29T04:33:32;99326.34;;;14.52;69.25
10392;BME280;5242;49.244;6.774;2022-07-29T04:41:24;99327.25;;;14.78;69.54
10392;BME280;5242;49.244;6.774;2022-07-29T04:49:23;99323.44;;;15.11;70.19
10392;BME280;5242;49.244;6.774;2022-07-29T04:57:16;99327.41;;;15.50;68.77
10392;BME280;5242;49.244;6.774;2022-07-29T05:05:08;99335.25;;;15.83;66.80
10392;BME280;5242;49.244;6.774;2022-07-29T05:12:59;99331.31;;;15.99;66.08
10392;BME280;5242;49.244;6.774;2022-07-29T05:20:51;99343.09;;;16.03;66.31
10392;BME280;5242;49.244;6.774;2022-07-29T05:28:43;99341.13;;;16.11;66.74
10392;BME280;5242;49.244;6.774;2022-07-29T05:36:35;99334.81;;;16.17;65.94
10392;BME280;5242;49.244;6.774;2022-07-29T05:44:27;99344.59;;;16.25;66.92
10392;BME280;5242;49.244;6.774;2022-07-29T05:52:19;99359.47;;;16.46;67.08
10392;BME280;5242;49.244;6.774;2022-07-29T06:00:11;99355.34;;;16.97;65.04
10392;BME280;5242;49.244;6.774;2022-07-29T06:08:03;99368.34;;;17.59;63.81
10392;BME280;5242;49.244;6.774;2022-07-29T06:15:59;99376.69;;;18.01;63.66
10392;BME280;5242;49.244;6.774;2022-07-29T06:23:52;99366.41;;;18.43;63.51
10392;BME280;5242;49.244;6.774;2022-07-29T06:31:44;99373.38;;;18.93;61.79
10392;BME280;5242;49.244;6.774;2022-07-29T06:39:36;99366.03;;;19.64;59.85
10392;BME280;5242;49.244;6.774;2022-07-29T06:47:28;99367.69;;;20.08;58.01
10392;BME280;5242;49.244;6.774;2022-07-29T06:55:20;99369.06;;;20.63;56.14
10392;BME280;5242;49.244;6.774;2022-07-29T07:03:17;99364.28;;;21.40;53.39
10392;BME280;5242;49.244;6.774;2022-07-29T07:11:09;99372.38;;;22.13;51.81
10392;BME280;5242;49.244;6.774;2022-07-29T07:19:00;99364.13;;;22.84;49.55
10392;BME280;5242;49.244;6.774;2022-07-29T07:26:52;99367.88;;;23.58;48.97
10392;BME280;5242;49.244;6.774;2022-07-29T07:34:44;99353.75;;;24.13;46.43
10392;BME280;5242;49.244;6.774;2022-07-29T07:42:36;99359.81;;;24.77;44.87
10392;BME280;5242;49.244;6.774;2022-07-29T07:50:31;99365.97;;;25.25;43.61
10392;BME280;5242;49.244;6.774;2022-07-29T07:58:22;99358.78;;;25.96;41.73
10392;BME280;5242;49.244;6.774;2022-07-29T08:06:14;99371.81;;;26.63;40.05
10392;BME280;5242;49.244;6.774;2022-07-29T08:14:06;99371.97;;;27.63;39.04
10392;BME280;5242;49.244;6.774;2022-07-29T08:21:58;99368.66;;;28.22;37.46
10392;BME280;5242;49.244;6.774;2022-07-29T08:29:50;99368.38;;;28.89;37.52
10392;BME280;5242;49.244;6.774;2022-07-29T08:37:42;99361.97;;;30.24;35.91
10392;BME280;5242;49.244;6.774;2022-07-29T08:45:45;99361.06;;;32.74;31.27
10392;BME280;5242;49.244;6.774;2022-07-29T08:53:42;99354.59;;;36.46;27.89
10392;BME280;5242;49.244;6.774;2022-07-29T09:01:37;99353.97;;;38.38;25.31
10392;BME280;5242;49.244;6.774;2022-07-29T09:09:35;99354.59;;;39.20;25.55
10392;BME280;5242;49.244;6.774;2022-07-29T09:17:48;99350.69;;;39.31;22.52
10392;BME280;5242;49.244;6.774;2022-07-29T09:25:41;99342.63;;;39.22;24.09
10392;BME280;5242;49.244;6.774;2022-07-29T09:33:33;99343.13;;;39.98;22.67
10392;BME280;5242;49.244;6.774;2022-07-29T09:41:56;99335.69;;;39.59;19.64
10392;BME280;5242;49.244;6.774;2022-07-29T09:49:54;99335.28;;;39.84;21.05
10392;BME280;5242;49.244;6.774;2022-07-29T09:57:46;99331.47;;;40.25;20.79
10392;BME280;5242;49.244;6.774;2022-07-29T10:05:39;99326.22;;;41.06;19.79
10392;BME280;5242;49.244;6.774;2022-07-29T10:13:32;99329.28;;;40.85;18.83
10392;BME280;5242;49.244;6.774;2022-07-29T10:21:25;99319.59;;;40.06;19.79
10392;BME280;5242;49.244;6.774;2022-07-29T10:29:27;99328.84;;;38.84;19.96
10392;BME280;5242;49.244;6.774;2022-07-29T10:45:37;99317.91;;;38.33;18.86
10392;BME280;5242;49.244;6.774;2022-07-29T10:53:49;99316.13;;;37.29;17.99
10392;BME280;5242;49.244;6.774;2022-07-29T11:01:42;99320.25;;;36.50;19.28
10392;BME280;5242;49.244;6.774;2022-07-29T11:09:44;99321.97;;;35.58;20.13
10392;BME280;5242;49.244;6.774;2022-07-29T11:25:44;99302.56;;;37.88;17.96
10392;BME280;5242;49.244;6.774;2022-07-29T11:33:43;99303.31;;;38.15;17.53
10392;BME280;5242;49.244;6.774;2022-07-29T11:41:47;99323.44;;;37.11;18.32
10392;BME280;5242;49.244;6.774;2022-07-29T11:49:44;99310.28;;;37.53;17.95
10392;BME280;5242;49.244;6.774;2022-07-29T11:57:55;99316.81;;;39.20;17.60
10392;BME280;5242;49.244;6.774;2022-07-29T12:05:54;99305.59;;;38.17;17.37
10392;BME280;5242;49.244;6.774;2022-07-29T12:13:49;99314.75;;;37.62;18.37
10392;BME280;5242;49.244;6.774;2022-07-29T12:21:50;99305.09;;;37.78;18.02
10392;BME280;5242;49.244;6.774;2022-07-29T12:29:57;99309.59;;;36.75;18.24
10392;BME280;5242;49.244;6.774;2022-07-29T12:37:51;99294.72;;;38.84;17.09
10392;BME280;5242;49.244;6.774;2022-07-29T12:45:56;99298.63;;;39.23;16.56
10392;BME280;5242;49.244;6.774;2022-07-29T12:54:09;99290.41;;;38.90;16.57
10392;BME280;5242;49.244;6.774;2022-07-29T13:02:02;99299.41;;;38.05;17.53
10392;BME280;5242;49.244;6.774;2022-07-29T13:10:10;99285.69;;;39.79;16.86
10392;BME280;5242;49.244;6.774;2022-07-29T13:18:02;99293.53;;;40.76;15.93
10392;BME280;5242;49.244;6.774;2022-07-29T13:25:54;99299.94;;;41.46;15.49
10392;BME280;5242;49.244;6.774;2022-07-29T13:33:46;99292.94;;;41.16;16.17
10392;BME280;5242;49.244;6.774;2022-07-29T13:41:39;99289.97;;;39.07;17.75
10392;BME280;5242;49.244;6.774;2022-07-29T13:49:31;99303.47;;;37.30;18.35
10392;BME280;5242;49.244;6.774;2022-07-29T13:57:23;99289.41;;;35.89;19.13
10392;BME280;5242;49.244;6.774;2022-07-29T14:05:15;99291.31;;;35.13;19.76
10392;BME280;5242;49.244;6.774;2022-07-29T14:13:07;99276.03;;;34.67;20.11
10392;BME280;5242;49.244;6.774;2022-07-29T14:21:16;99265.13;;;33.99;20.41
10392;BME280;5242;49.244;6.774;2022-07-29T14:29:08;99277.75;;;32.84;21.84
10392;BME280;5242;49.244;6.774;2022-07-29T14:37:02;99269.06;;;32.48;22.21
10392;BME280;5242;49.244;6.774;2022-07-29T14:44:56;99266.00;;;32.57;22.33
10392;BME280;5242;49.244;6.774;2022-07-29T14:52:48;99262.63;;;33.09;21.66
10392;BME280;5242;49.244;6.774;2022-07-29T15:00:40;99266.44;;;33.29;21.95
10392;BME280;5242;49.244;6.774;2022-07-29T15:08:32;99260.06;;;33.17;21.83
10392;BME280;5242;49.244;6.774;2022-07-29T15:16:24;99259.56;;;33.02;21.87
10392;BME280;5242;49.244;6.774;2022-07-29T15:24:16;99254.44;;;32.89;22.27
10392;BME280;5242;49.244;6.774;2022-07-29T15:32:09;99260.88;;;32.73;21.99
10392;BME280;5242;49.244;6.774;2022-07-29T15:40:02;99258.78;;;32.45;22.61
10392;BME280;5242;49.244;6.774;2022-07-29T15:47:54;99256.69;;;32.23;22.81
10392;BME280;5242;49.244;6.774;2022-07-29T15:55:46;99264.28;;;31.89;23.24
10392;BME280;5242;49.244;6.774;2022-07-29T16:03:37;99267.22;;;31.57;23.58
10392;BME280;5242;49.244;6.774;2022-07-29T16:11:36;99259.91;;;31.76;23.54
10392;BME280;5242;49.244;6.774;2022-07-29T16:19:29;99258.69;;;32.00;23.11
10392;BME280;5242;49.244;6.774;2022-07-29T16:27:21;99254.63;;;32.01;23.14
10392;BME280;5242;49.244;6.774;2022-07-29T16:35:26;99254.59;;;31.95;23.38
10392;BME280;5242;49.244;6.774;2022-07-29T16:43:30;99263.34;;;31.43;24.10
10392;BME280;5242;49.244;6.774;2022-07-29T16:51:22;99260.22;;;30.98;24.39
10392;BME280;5242;49.244;6.774;2022-07-29T16:59:14;99271.78;;;30.74;24.56
10392;BME280;5242;49.244;6.774;2022-07-29T17:07:06;99270.59;;;30.54;24.92
10392;BME280;5242;49.244;6.774;2022-07-29T17:14:57;99290.66;;;30.42;25.27
10392;BME280;5242;49.244;6.774;2022-07-29T17:22:49;99284.91;;;30.04;25.97
10392;BME280;5242;49.244;6.774;2022-07-29T17:30:41;99290.78;;;29.86;26.13
10392;BME280;5242;49.244;6.774;2022-07-29T17:38:33;99298.06;;;29.57;26.49
10392;BME280;5242;49.244;6.774;2022-07-29T17:46:26;99302.69;;;29.60;26.81
10392;BME280;5242;49.244;6.774;2022-07-29T17:54:18;99302.66;;;29.75;26.63
10392;BME280;5242;49.244;6.774;2022-07-29T18:02:09;99310.44;;;29.65;26.88
10392;BME280;5242;49.244;6.774;2022-07-29T18:10:03;99324.56;;;29.36;27.03
10392;BME280;5242;49.244;6.774;2022-07-29T18:17:55;99337.47;;;28.98;27.59
10392;BME280;5242;49.244;6.774;2022-07-29T18:25:48;99344.63;;;28.54;28.25
10392;BME280;5242;49.244;6.774;2022-07-29T18:33:40;99359.13;;;28.29;28.44
10392;BME280;5242;49.244;6.774;2022-07-29T18:41:32;99371.91;;;28.06;29.02
10392;BME280;5242;49.244;6.774;2022-07-29T18:49:24;99385.63;;;27.70;29.36
10392;BME280;5242;49.244;6.774;2022-07-29T18:57:16;99400.47;;;27.52;29.49
10392;BME280;5242;49.244;6.774;2022-07-29T19:05:28;99412.50;;;27.35;30.16
10392;BME280;5242;49.244;6.774;2022-07-29T19:13:20;99420.31;;;27.21;29.82
10392;BME280;5242;49.244;6.774;2022-07-29T19:21:12;99437.25;;;27.08;30.07
10392;BME280;5242;49.244;6.774;2022-07-29T19:29:06;99450.34;;;26.65;31.07
10392;BME280;5242;49.244;6.774;2022-07-29T19:36:57;99467.97;;;26.26;32.33
10392;BME280;5242;49.244;6.774;2022-07-29T19:44:50;99482.53;;;25.80;33.00
10392;BME280;5242;49.244;6.774;2022-07-29T19:52:42;99502.47;;;25.38;34.95
10392;BME280;5242;49.244;6.774;2022-07-29T20:00:35;99511.00;;;25.00;34.94
10392;BME280;5242;49.244;6.774;2022-07-29T20:08:30;99523.72;;;24.66;36.37
10392;BME280;5242;49.244;6.774;2022-07-29T20:16:22;99531.97;;;24.57;35.65
10392;BME280;5242;49.244;6.774;2022-07-29T20:24:19;99539.03;;;24.23;36.72
10392;BME280;5242;49.244;6.774;2022-07-29T20:32:11;99550.16;;;23.97;37.65
10392;BME280;5242;49.244;6.774;2022-07-29T20:40:04;99552.16;;;23.84;37.71
10392;BME280;5242;49.244;6.774;2022-07-29T20:48:04;99558.56;;;23.68;38.04
10392;BME280;5242;49.244;6.774;2022-07-29T20:55:59;99568.84;;;23.42;39.03
10392;BME280;5242;49.244;6.774;2022-07-29T21:03:50;99563.53;;;23.18;39.38
10392;BME280;5242;49.244;6.774;2022-07-29T21:11:42;99571.66;;;22.80;40.99
10392;BME280;5242;49.244;6.774;2022-07-29T21:19:35;99584.94;;;22.23;42.99
10392;BME280;5242;49.244;6.774;2022-07-29T21:27:27;99582.75;;;21.78;42.84
10392;BME280;5242;49.244;6.774;2022-07-29T21:35:38;99601.53;;;21.51;44.10
10392;BME280;5242;49.244;6.774;2022-07-29T21:43:49;99612.75;;;21.20;43.61
10392;BME280;5242;49.244;6.774;2022-07-29T21:51:41;99619.41;;;20.79;44.62
10392;BME280;5242;49.244;6.774;2022-07-29T21:59:33;99620.66;;;20.47;47.18
10392;BME280;5242;49.244;6.774;2022-07-29T22:07:25;99629.44;;;20.15;46.71
10392;BME280;5242;49.244;6.774;2022-07-29T22:15:36;99643.59;;;19.90;47.95
10392;BME280;5242;49.244;6.774;2022-07-29T22:23:29;99647.78;;;19.67;48.49
10392;BME280;5242;49.244;6.774;2022-07-29T22:31:21;99666.13;;;19.47;51.19
10392;BME280;5242;49.244;6.774;2022-07-29T22:39:13;99666.50;;;19.11;51.29
10392;BME280;5242;49.244;6.774;2022-07-29T22:47:06;99662.78;;;18.83;51.17
10392;BME280;5242;49.244;6.774;2022-07-29T22:54:58;99670.84;;;18.56;53.96
10392;BME280;5242;49.244;6.774;2022-07-29T23:02:50;99677.25;;;18.39;53.27
10392;BME280;5242;49.244;6.774;2022-07-29T23:10:42;99670.59;;;18.29;53.17
10392;BME280;5242;49.244;6.774;2022-07-29T23:18:34;99667.88;;;18.22;53.99
10392;BME280;5242;49.244;6.774;2022-07-29T23:26:25;99659.69;;;18.08;55.02
10392;BME280;5242;49.244;6.774;2022-07-29T23:34:18;99656.19;;;17.96;53.22
10392;BME280;5242;49.244;6.774;2022-07-29T23:42:10;99642.84;;;17.84;56.65
10392;BME280;5242;49.244;6.774;2022-07-29T23:50:03;99642.47;;;17.75;56.48
10392;BME280;5242;49.244;6.774;2022-07-29T23:57:55;99640.53;;;17.65;54.19
